createdAt,value
2018-08-28T00:01:25.857Z,101250.18
2018-08-28T00:03:57.065Z,101262.67
2018-08-28T00:06:28.039Z,101268.64
2018-08-28T00:09:00.323Z,101267.97
2018-08-28T00:11:32.575Z,101272.91
2018-08-28T00:14:03.405Z,101271.58
2018-08-28T00:16:37.317Z,101277.47
2018-08-28T00:19:08.617Z,101278.30
2018-08-28T00:21:48.597Z,101282.75
2018-08-28T00:27:24.982Z,101287.53
2018-08-28T00:32:44.905Z,101292.75
2018-08-28T00:35:15.432Z,101290.76
2018-08-28T00:37:47.430Z,101294.59
2018-08-28T00:40:18.014Z,101291.80
2018-08-28T00:42:48.750Z,101296.00
2018-08-28T00:45:18.890Z,101297.53
2018-08-28T00:47:49.149Z,101308.20
2018-08-28T00:50:19.815Z,101302.81
2018-08-28T00:52:56.615Z,101311.95
2018-08-28T00:55:32.382Z,101312.13
2018-08-28T01:00:50.757Z,101322.40
2018-08-28T01:03:21.033Z,101320.08
2018-08-28T01:05:51.051Z,101323.45
2018-08-28T01:08:21.191Z,101328.45
2018-08-28T01:10:52.868Z,101329.84
2018-08-28T01:13:22.958Z,101329.20
2018-08-28T01:15:54.803Z,101333.16
2018-08-28T01:18:25.091Z,101334.63
2018-08-28T01:20:56.062Z,101341.94
2018-08-28T01:23:26.309Z,101336.52
2018-08-28T01:25:56.552Z,101345.78
2018-08-28T01:28:26.646Z,101346.43
2018-08-28T01:30:57.514Z,101344.20
2018-08-28T01:33:29.581Z,101347.36
2018-08-28T01:35:59.583Z,101346.02
2018-08-28T01:38:30.523Z,101350.06
2018-08-28T01:41:00.529Z,101354.39
2018-08-28T01:43:32.431Z,101355.10
2018-08-28T01:46:02.323Z,101354.08
2018-08-28T01:48:34.176Z,101348.45
2018-08-28T01:51:05.014Z,101357.31
2018-08-28T01:53:36.403Z,101354.16
2018-08-28T01:56:06.432Z,101349.03
2018-08-28T01:58:36.441Z,101354.74
2018-08-28T02:01:07.496Z,101362.03
2018-08-28T02:03:37.611Z,101359.56
2018-08-28T02:06:07.899Z,101355.37
2018-08-28T02:08:38.876Z,101362.84
2018-08-28T02:11:10.881Z,101361.84
2018-08-28T02:13:41.822Z,101365.41
2018-08-28T02:16:12.329Z,101366.98
2018-08-28T02:18:42.344Z,101371.29
2018-08-28T02:21:14.829Z,101370.25
2018-08-28T02:23:45.764Z,101376.63
2018-08-28T02:26:17.229Z,101367.38
2018-08-28T02:28:47.400Z,101370.83
2018-08-28T02:31:17.327Z,101376.22
2018-08-28T02:33:48.546Z,101375.79
2018-08-28T02:36:18.798Z,101383.34
2018-08-28T02:38:49.753Z,101380.27
2018-08-28T02:41:20.843Z,101386.75
2018-08-28T02:43:51.758Z,101385.86
2018-08-28T02:46:22.491Z,101389.09
2018-08-28T02:48:53.634Z,101388.78
2018-08-28T02:51:24.503Z,101389.53
2018-08-28T02:53:55.956Z,101392.69
2018-08-28T02:56:26.244Z,101394.84
2018-08-28T02:58:56.220Z,101401.91
2018-08-28T03:01:27.588Z,101403.20
2018-08-28T03:03:58.663Z,101407.38
2018-08-28T03:06:28.241Z,101413.43
2018-08-28T03:08:58.873Z,101421.64
2018-08-28T03:11:30.703Z,101423.16
2018-08-28T03:14:01.280Z,101428.02
2018-08-28T03:16:32.232Z,101432.38
2018-08-28T03:19:04.589Z,101435.56
2018-08-28T03:21:37.003Z,101434.82
2018-08-28T03:24:08.643Z,101437.36
2018-08-28T03:26:39.721Z,101445.37
2018-08-28T03:29:10.110Z,101443.23
2018-08-28T03:31:40.403Z,101444.09
2018-08-28T03:34:10.830Z,101444.67
2018-08-28T03:36:41.015Z,101444.27
2018-08-28T03:39:11.271Z,101448.30
2018-08-28T03:41:41.381Z,101458.44
2018-08-28T03:44:11.381Z,101456.02
2018-08-28T03:46:41.452Z,101463.70
2018-08-28T03:49:11.785Z,101460.83
2018-08-28T03:51:41.863Z,101466.14
2018-08-28T03:54:13.621Z,101467.82
2018-08-28T03:56:46.540Z,101469.97
2018-08-28T03:59:16.646Z,101469.16
2018-08-28T04:01:46.740Z,101475.20
2018-08-28T04:04:17.890Z,101476.80
2018-08-28T04:06:48.155Z,101481.67
2018-08-28T04:09:19.261Z,101483.34
2018-08-28T04:11:50.963Z,101485.52
2018-08-28T04:14:39.559Z,101483.05
2018-08-28T04:17:12.002Z,101486.88
2018-08-28T04:19:42.163Z,101491.94
2018-08-28T04:22:13.549Z,101489.25
2018-08-28T04:24:43.771Z,101490.11
2018-08-28T04:27:14.604Z,101483.53
2018-08-28T04:29:44.798Z,101497.68
2018-08-28T04:32:17.709Z,101504.05
2018-08-28T04:34:47.992Z,101502.21
2018-08-28T04:37:18.548Z,101507.60
2018-08-28T04:39:49.504Z,101508.34
2018-08-28T04:42:21.247Z,101502.61
2018-08-28T04:44:52.179Z,101502.88
2018-08-28T04:47:22.734Z,101513.02
2018-08-28T04:49:53.750Z,101511.67
2018-08-28T04:52:24.662Z,101516.50
2018-08-28T04:54:56.998Z,101525.53
2018-08-28T04:57:27.360Z,101534.11
2018-08-28T04:59:59.275Z,101535.05
2018-08-28T05:02:34.980Z,101535.45
2018-08-28T05:05:10.194Z,101532.27
2018-08-28T05:07:40.475Z,101537.58
2018-08-28T05:10:10.657Z,101534.45
2018-08-28T05:12:41.935Z,101535.64
2018-08-28T05:15:12.333Z,101545.95
2018-08-28T05:17:42.659Z,101545.45
2018-08-28T05:20:13.112Z,101544.84
2018-08-28T05:22:44.555Z,101555.22
2018-08-28T05:25:15.203Z,101556.41
2018-08-28T05:27:45.980Z,101558.61
2018-08-28T05:30:19.613Z,101561.88
2018-08-28T05:32:51.032Z,101563.34
2018-08-28T05:35:21.584Z,101561.52
2018-08-28T05:37:52.157Z,101568.27
2018-08-28T05:40:22.562Z,101563.25
2018-08-28T05:42:52.884Z,101568.02
2018-08-28T05:45:27.673Z,101570.73
2018-08-28T05:47:58.643Z,101566.42
2018-08-28T05:50:29.947Z,101569.63
2018-08-28T05:53:04.282Z,101570.72
2018-08-28T05:55:36.271Z,101574.14
2018-08-28T05:58:08.491Z,101575.41
2018-08-28T06:00:39.729Z,101575.51
2018-08-28T06:03:12.155Z,101578.91
2018-08-28T06:05:46.088Z,101581.38
2018-08-28T06:08:19.129Z,101584.95
2018-08-28T06:10:49.633Z,101588.10
2018-08-28T06:13:21.293Z,101586.67
2018-08-28T06:15:52.047Z,101589.32
2018-08-28T06:18:23.396Z,101579.30
2018-08-28T06:20:53.698Z,101585.87
2018-08-28T06:23:24.572Z,101591.36
2018-08-28T06:25:55.066Z,101596.54
2018-08-28T06:28:25.585Z,101589.45
2018-08-28T06:30:56.676Z,101589.72
2018-08-28T06:33:39.917Z,101587.21
2018-08-28T06:44:59.220Z,101594.83
2018-08-28T06:59:52.625Z,101600.39
2018-08-28T07:02:34.226Z,101602.74
2018-08-28T07:05:10.838Z,101600.48
2018-08-28T07:17:40.261Z,101615.63
2018-08-28T07:20:17.545Z,101617.82
2018-08-28T07:22:55.441Z,101618.27
2018-08-28T07:25:32.970Z,101615.26
2018-08-28T07:33:57.258Z,101620.37
2018-08-28T07:36:29.694Z,101629.14
2018-08-28T07:39:02.530Z,101632.83
2018-08-28T07:41:46.763Z,101627.71
2018-08-28T07:44:25.298Z,101634.08
2018-08-28T07:49:41.413Z,101636.44
2018-08-28T07:52:15.017Z,101630.92
2018-08-28T07:54:47.047Z,101636.08
2018-08-28T07:57:20.560Z,101635.86
2018-08-28T07:59:53.747Z,101623.55
2018-08-28T08:02:25.901Z,101635.55
2018-08-28T08:04:57.996Z,101632.38
2018-08-28T08:07:33.458Z,101630.80
2018-08-28T08:10:07.037Z,101631.75
2018-08-28T08:12:42.677Z,101624.64
2018-08-28T08:49:47.592Z,101658.52
2018-08-28T08:52:19.187Z,101665.38
2018-08-28T08:54:50.133Z,101656.05
2018-08-28T08:57:20.743Z,101659.94
2018-08-28T08:59:51.161Z,101666.23
2018-08-28T09:02:21.372Z,101670.32
2018-08-28T09:04:52.571Z,101672.17
2018-08-28T09:07:23.751Z,101681.09
2018-08-28T09:09:55.661Z,101674.81
2018-08-28T09:12:26.573Z,101689.34
2018-08-28T09:14:59.377Z,101695.56
2018-08-28T09:17:30.891Z,101723.00
2018-08-28T09:20:03.706Z,101716.45
2018-08-28T09:22:34.600Z,101711.97
2018-08-28T09:25:06.610Z,101708.44
2018-08-28T09:27:38.672Z,101705.14
2018-08-28T09:30:11.089Z,101708.57
2018-08-28T09:32:42.891Z,101706.99
2018-08-28T09:35:14.829Z,101703.02
2018-08-28T09:37:46.047Z,101693.44
2018-08-28T09:42:56.778Z,101691.68
2018-08-28T09:45:28.189Z,101698.95
2018-08-28T09:48:05.931Z,101697.50
2018-08-28T09:50:38.956Z,101692.54
2018-08-28T09:53:11.492Z,101697.73
2018-08-28T09:55:46.841Z,101708.28
2018-08-28T09:58:19.619Z,101703.80
2018-08-28T10:01:01.754Z,101702.76
2018-08-28T10:03:34.467Z,101712.25
2018-08-28T10:06:09.557Z,101714.98
2018-08-28T10:08:41.204Z,101714.64
2018-08-28T10:11:12.104Z,101717.94
2018-08-28T10:13:43.690Z,101722.44
2018-08-28T10:16:16.299Z,101721.70
2018-08-28T10:18:53.011Z,101717.66
2018-08-28T10:24:35.543Z,101724.83
2018-08-28T10:27:08.668Z,101728.78
2018-08-28T10:29:38.840Z,101718.87
2018-08-28T10:32:09.176Z,101723.44
2018-08-28T10:34:39.647Z,101726.20
2018-08-28T10:37:09.943Z,101731.05
2018-08-28T10:39:41.497Z,101734.33
2018-08-28T10:42:11.594Z,101726.00
2018-08-28T10:44:42.286Z,101727.39
2018-08-28T10:47:12.771Z,101729.22
2018-08-28T10:49:43.193Z,101724.78
2018-08-28T10:52:13.514Z,101727.38
2018-08-28T10:54:45.085Z,101728.73
2018-08-28T10:57:15.691Z,101729.23
2018-08-28T10:59:46.493Z,101728.11
2018-08-28T11:02:16.669Z,101727.29
2018-08-28T11:04:49.145Z,101730.92
2018-08-28T11:07:19.552Z,101729.81
2018-08-28T11:09:51.333Z,101730.93
2018-08-28T11:12:21.553Z,101727.83
2018-08-28T11:14:53.053Z,101727.70
2018-08-28T11:17:23.204Z,101735.77
2018-08-28T11:19:54.373Z,101730.95
2018-08-28T11:22:25.028Z,101733.53
2018-08-28T11:24:55.327Z,101737.56
2018-08-28T11:27:27.547Z,101728.59
2018-08-28T11:29:57.793Z,101728.78
2018-08-28T11:32:29.414Z,101739.83
2018-08-28T11:34:59.729Z,101739.98
2018-08-28T11:37:29.949Z,101736.25
2018-08-28T11:40:00.061Z,101741.16
2018-08-28T11:42:30.752Z,101739.69
2018-08-28T11:45:00.827Z,101745.55
2018-08-28T11:47:30.991Z,101739.09
2018-08-28T11:50:02.394Z,101742.34
2018-08-28T11:52:32.694Z,101750.45
2018-08-28T11:55:03.464Z,101746.69
2018-08-28T11:57:33.671Z,101747.53
2018-08-28T12:00:04.152Z,101745.74
2018-08-28T12:02:34.866Z,101749.71
2018-08-28T12:05:05.405Z,101747.03
2018-08-28T12:07:35.516Z,101746.80
2018-08-28T12:10:07.341Z,101749.09
2018-08-28T12:12:39.340Z,101750.45
2018-08-28T12:15:10.129Z,101757.44
2018-08-28T12:17:40.519Z,101751.15
2018-08-28T12:20:11.701Z,101753.74
2018-08-28T12:22:41.921Z,101755.49
2018-08-28T12:25:12.881Z,101752.58
2018-08-28T12:27:43.404Z,101753.79
2018-08-28T12:30:13.726Z,101756.56
2018-08-28T12:32:43.856Z,101760.53
2018-08-28T12:35:13.951Z,101761.19
2018-08-28T12:37:44.512Z,101756.78
2018-08-28T12:40:14.798Z,101756.89
2018-08-28T12:42:45.379Z,101764.19
2018-08-28T12:45:19.419Z,101760.96
2018-08-28T12:47:49.659Z,101756.28
2018-08-28T12:50:20.086Z,101770.77
2018-08-28T12:52:50.461Z,101772.95
2018-08-28T12:55:22.380Z,101772.41
2018-08-28T12:57:53.134Z,101776.88
2018-08-28T13:00:24.048Z,101777.41
2018-08-28T13:02:54.310Z,101773.23
2018-08-28T13:05:24.195Z,101780.16
2018-08-28T13:07:55.680Z,101785.02
2018-08-28T13:10:25.278Z,101777.44
2018-08-28T13:12:54.918Z,101790.55
2018-08-28T13:15:25.243Z,101783.20
2018-08-28T13:17:54.977Z,101785.95
2018-08-28T13:20:25.099Z,101784.88
2018-08-28T13:22:55.522Z,101780.84
2018-08-28T13:25:36.432Z,101784.75
2018-08-28T13:28:10.849Z,101780.44
2018-08-28T13:30:43.773Z,101781.80
2018-08-28T13:33:14.187Z,101773.80
2018-08-28T13:38:25.752Z,101778.69
2018-08-28T13:40:57.027Z,101777.83
2018-08-28T13:43:27.021Z,101782.23
2018-08-28T13:45:58.947Z,101779.23
2018-08-28T13:48:29.893Z,101780.98
2018-08-28T13:51:00.213Z,101776.41
2018-08-28T13:53:30.541Z,101780.32
2018-08-28T13:56:01.388Z,101771.08
2018-08-28T13:58:32.640Z,101774.41
2018-08-28T14:01:03.140Z,101776.06
2018-08-28T14:03:33.766Z,101772.03
2018-08-28T14:06:04.401Z,101773.61
2018-08-28T14:08:35.026Z,101772.67
2018-08-28T14:11:05.304Z,101771.77
2018-08-28T14:13:35.763Z,101777.42
2018-08-28T14:16:06.255Z,101778.28
2018-08-28T14:18:36.525Z,101781.27
2018-08-28T14:21:09.802Z,101780.34
2018-08-28T14:23:49.791Z,101786.31
2018-08-28T14:26:30.559Z,101787.65
2018-08-28T14:31:46.324Z,101787.00
2018-08-28T14:34:22.726Z,101785.47
2018-08-28T14:36:55.654Z,101782.83
2018-08-28T14:39:28.172Z,101781.19
2018-08-28T14:42:04.137Z,101782.41
2018-08-28T14:44:42.802Z,101784.81
2018-08-28T14:47:20.582Z,101783.63
2018-08-28T14:49:55.825Z,101789.94
2018-08-28T14:52:31.637Z,101786.98
2018-08-28T14:55:02.123Z,101790.80
2018-08-28T14:57:37.357Z,101785.78
2018-08-28T15:00:10.924Z,101792.67
2018-08-28T15:02:42.666Z,101793.34
2018-08-28T15:05:13.912Z,101787.77
2018-08-28T15:07:45.461Z,101787.23
2018-08-28T15:10:17.015Z,101788.23
2018-08-28T15:12:48.100Z,101782.70
2018-08-28T15:15:19.160Z,101788.53
2018-08-28T15:17:49.624Z,101787.28
2018-08-28T15:20:23.053Z,101785.31
2018-08-28T15:22:54.944Z,101792.67
2018-08-28T15:25:28.624Z,101791.70
2018-08-28T15:27:58.842Z,101791.20
2018-08-28T15:30:45.794Z,101783.75
2018-08-28T15:38:47.836Z,101783.66
2018-08-28T15:44:03.227Z,101781.65
2018-08-28T15:52:40.364Z,101783.07
2018-08-28T15:58:10.806Z,101777.77
2018-08-28T16:00:45.366Z,101781.95
2018-08-28T16:03:26.009Z,101782.19
2018-08-28T16:06:07.890Z,101781.80
2018-08-28T16:08:41.146Z,101778.33
2018-08-28T16:14:23.006Z,101775.33
2018-08-28T16:17:12.198Z,101777.48
2018-08-28T16:19:51.727Z,101779.19
2018-08-28T16:25:26.988Z,101775.23
2018-08-28T16:28:03.030Z,101778.36
2018-08-28T16:30:33.656Z,101778.42
2018-08-28T16:33:03.662Z,101774.42
2018-08-28T16:35:35.320Z,101773.55
2018-08-28T16:38:08.020Z,101781.95
2018-08-28T16:40:38.799Z,101774.55
2018-08-28T16:43:09.460Z,101770.62
2018-08-28T16:45:40.178Z,101775.84
2018-08-28T16:48:11.049Z,101785.47
2018-08-28T16:50:42.371Z,101783.29
2018-08-28T16:53:12.919Z,101782.47
2018-08-28T16:55:43.974Z,101782.47
2018-08-28T16:58:14.396Z,101778.20
2018-08-28T17:00:45.199Z,101778.74
2018-08-28T17:03:15.343Z,101783.75
2018-08-28T17:05:45.516Z,101783.75
2018-08-28T17:08:15.884Z,101787.54
2018-08-28T17:10:46.055Z,101782.71
2018-08-28T17:13:17.088Z,101786.61
2018-08-28T17:15:47.673Z,101791.75
2018-08-28T17:18:18.360Z,101787.78
2018-08-28T17:20:48.841Z,101780.67
2018-08-28T17:23:19.777Z,101786.50
2018-08-28T17:25:50.000Z,101784.02
2018-08-28T17:28:20.843Z,101783.81
2018-08-28T17:30:52.169Z,101781.78
2018-08-28T17:33:22.375Z,101780.31
2018-08-28T17:35:52.737Z,101783.13
2018-08-28T17:38:22.791Z,101781.38
2018-08-28T17:40:53.488Z,101775.50
2018-08-28T17:43:23.645Z,101783.05
2018-08-28T17:45:54.703Z,101781.59
2018-08-28T17:48:25.205Z,101779.34
2018-08-28T17:50:56.370Z,101782.06
2018-08-28T17:53:27.385Z,101781.74
2018-08-28T17:55:58.088Z,101790.79
2018-08-28T17:58:29.883Z,101791.86
2018-08-28T18:01:00.515Z,101793.72
2018-08-28T18:03:31.044Z,101799.65
2018-08-28T18:06:01.750Z,101795.98
2018-08-28T18:08:32.713Z,101801.47
2018-08-28T18:11:03.954Z,101796.53
2018-08-28T18:13:34.092Z,101799.72
2018-08-28T18:16:04.911Z,101801.48
2018-08-28T18:18:35.214Z,101799.35
2018-08-28T18:21:05.484Z,101799.81
2018-08-28T18:23:36.423Z,101803.50
2018-08-28T18:26:07.215Z,101805.27
2018-08-28T18:28:37.857Z,101803.31
2018-08-28T18:31:08.091Z,101809.83
2018-08-28T18:33:38.754Z,101817.39
2018-08-28T18:36:09.446Z,101809.25
2018-08-28T18:38:39.981Z,101813.31
2018-08-28T18:46:44.851Z,101815.45
2018-08-28T18:49:17.923Z,101819.25
2018-08-28T18:51:49.419Z,101823.41
2018-08-28T18:54:24.455Z,101823.02
2018-08-28T18:57:01.213Z,101825.33
2018-08-28T18:59:37.680Z,101830.66
2018-08-28T19:08:04.438Z,101822.53
2018-08-28T19:10:35.956Z,101828.72
2018-08-28T19:13:14.015Z,101833.09
2018-08-28T19:15:49.366Z,101827.06
2018-08-28T19:18:21.333Z,101827.76
2018-08-28T19:20:51.988Z,101825.41
2018-08-28T19:23:22.892Z,101829.12
2018-08-28T19:25:54.559Z,101823.30
2018-08-28T19:28:26.339Z,101825.02
2018-08-28T19:30:56.972Z,101822.91
2018-08-28T19:33:27.476Z,101827.94
2018-08-28T19:35:57.584Z,101817.73
2018-08-28T19:38:28.916Z,101821.41
2018-08-28T19:40:59.456Z,101817.44
2018-08-28T19:43:29.925Z,101828.69
2018-08-28T19:46:06.553Z,101826.23
2018-08-28T19:48:37.070Z,101824.42
2018-08-28T19:51:08.836Z,101820.05
2018-08-28T19:53:39.309Z,101817.64
2018-08-28T19:56:09.799Z,101819.45
2018-08-28T19:58:40.221Z,101823.42
2018-08-28T20:01:11.023Z,101813.47
2018-08-28T20:03:41.404Z,101814.62
2018-08-28T20:06:14.128Z,101822.06
2018-08-28T20:08:45.573Z,101816.64
2018-08-28T20:11:17.733Z,101821.11
2018-08-28T20:13:55.280Z,101817.34
2018-08-28T20:16:28.301Z,101817.34
2018-08-28T20:19:00.041Z,101813.19
2018-08-28T20:24:47.279Z,101812.33
2018-08-28T20:27:30.296Z,101816.96
2018-08-28T20:30:09.257Z,101815.30
2018-08-28T20:32:44.834Z,101814.95
2018-08-28T20:38:04.405Z,101818.00
2018-08-28T20:43:27.305Z,101812.87
2018-08-28T20:46:05.309Z,101804.38
2018-08-28T20:48:37.199Z,101808.94
2018-08-28T20:51:15.559Z,101801.85
2018-08-28T20:53:48.079Z,101804.59
2018-08-28T20:56:18.850Z,101802.81
2018-08-28T20:58:50.578Z,101803.02
2018-08-28T21:01:21.501Z,101799.23
2018-08-28T21:03:52.796Z,101788.19
2018-08-28T21:06:23.323Z,101795.66
2018-08-28T21:08:54.263Z,101788.01
2018-08-28T21:11:27.080Z,101794.18
2018-08-28T21:13:58.698Z,101788.66
2018-08-28T21:16:33.588Z,101790.03
2018-08-28T21:19:04.928Z,101785.67
2018-08-28T21:21:37.200Z,101788.12
2018-08-28T21:24:09.261Z,101787.35
2018-08-28T21:26:40.761Z,101786.70
2018-08-28T21:29:11.903Z,101784.66
2018-08-28T21:31:43.880Z,101786.06
2018-08-28T21:34:15.835Z,101790.91
2018-08-28T21:39:51.657Z,101778.50
2018-08-28T21:42:40.973Z,101785.30
2018-08-28T21:45:35.126Z,101787.22
2018-08-28T21:48:20.091Z,101781.96
2018-08-28T21:50:55.367Z,101785.38
2018-08-28T21:56:40.821Z,101788.16
2018-08-28T21:59:32.391Z,101788.78
2018-08-28T22:05:38.803Z,101785.86
2018-08-28T22:11:21.117Z,101786.73
2018-08-28T22:25:44.417Z,101781.09
2018-08-28T22:28:29.837Z,101787.53
2018-08-28T22:33:57.788Z,101792.09
2018-08-28T22:36:36.164Z,101789.57
2018-08-28T22:39:15.639Z,101789.71
2018-08-28T22:42:16.691Z,101789.08
2018-08-28T22:45:05.947Z,101788.12
2018-08-28T23:00:53.367Z,101789.11
2018-08-28T23:03:47.215Z,101780.55
2018-08-28T23:15:01.176Z,101772.11
